sensor_id;sensor_type;location;lat;lon;timestamp;P1;durP1;ratioP1;P2;durP2;ratioP2
67747;SDS011;54543;50.712;6.070;2024-03-07T00:01:26;26.10;;;12.45;;
67747;SDS011;54543;50.712;6.070;2024-03-07T00:03:52;26.85;;;13.70;;
67747;SDS011;54543;50.712;6.070;2024-03-07T00:06:17;25.08;;;12.90;;
67747;SDS011;54543;50.712;6.070;2024-03-07T00:08:43;25.83;;;12.32;;
67747;SDS011;54543;50.712;6.070;2024-03-07T00:11:09;26.27;;;13.02;;
67747;SDS011;54543;50.712;6.070;2024-03-07T00:13:34;24.75;;;12.55;;
67747;SDS011;54543;50.712;6.070;2024-03-07T00:16:00;26.42;;;12.73;;
67747;SDS011;54543;50.712;6.070;2024-03-07T00:18:27;23.73;;;12.48;;
67747;SDS011;54543;50.712;6.070;2024-03-07T00:20:52;23.27;;;12.27;;
67747;SDS011;54543;50.712;6.070;2024-03-07T00:23:20;24.90;;;13.00;;
67747;SDS011;54543;50.712;6.070;2024-03-07T00:25:45;25.88;;;11.70;;
67747;SDS011;54543;50.712;6.070;2024-03-07T00:28:14;26.38;;;13.55;;
67747;SDS011;54543;50.712;6.070;2024-03-07T00:30:42;26.40;;;12.80;;
67747;SDS011;54543;50.712;6.070;2024-03-07T00:33:11;26.70;;;13.13;;
67747;SDS011;54543;50.712;6.070;2024-03-07T00:35:37;29.55;;;13.13;;
67747;SDS011;54543;50.712;6.070;2024-03-07T00:38:03;29.15;;;13.77;;
67747;SDS011;54543;50.712;6.070;2024-03-07T00:40:29;26.40;;;12.52;;
67747;SDS011;54543;50.712;6.070;2024-03-07T00:42:55;24.63;;;12.60;;
67747;SDS011;54543;50.712;6.070;2024-03-07T00:45:20;27.27;;;12.43;;
67747;SDS011;54543;50.712;6.070;2024-03-07T00:47:46;26.17;;;12.93;;
67747;SDS011;54543;50.712;6.070;2024-03-07T00:50:13;24.42;;;11.25;;
67747;SDS011;54543;50.712;6.070;2024-03-07T00:52:39;23.42;;;11.23;;
67747;SDS011;54543;50.712;6.070;2024-03-07T00:55:05;25.83;;;12.73;;
67747;SDS011;54543;50.712;6.070;2024-03-07T00:57:33;26.33;;;12.25;;
67747;SDS011;54543;50.712;6.070;2024-03-07T00:59:59;28.90;;;13.52;;
67747;SDS011;54543;50.712;6.070;2024-03-07T01:02:25;28.15;;;13.02;;
67747;SDS011;54543;50.712;6.070;2024-03-07T01:04:51;26.98;;;12.43;;
67747;SDS011;54543;50.712;6.070;2024-03-07T01:07:18;27.55;;;12.52;;
67747;SDS011;54543;50.712;6.070;2024-03-07T01:09:44;26.75;;;12.38;;
67747;SDS011;54543;50.712;6.070;2024-03-07T01:12:09;26.45;;;12.98;;
67747;SDS011;54543;50.712;6.070;2024-03-07T01:14:36;27.70;;;12.55;;
67747;SDS011;54543;50.712;6.070;2024-03-07T01:17:01;28.05;;;12.82;;
67747;SDS011;54543;50.712;6.070;2024-03-07T01:19:27;26.13;;;12.23;;
67747;SDS011;54543;50.712;6.070;2024-03-07T01:21:53;26.23;;;12.32;;
67747;SDS011;54543;50.712;6.070;2024-03-07T01:24:18;24.65;;;11.93;;
67747;SDS011;54543;50.712;6.070;2024-03-07T01:26:45;27.20;;;12.63;;
67747;SDS011;54543;50.712;6.070;2024-03-07T01:29:11;25.90;;;11.98;;
67747;SDS011;54543;50.712;6.070;2024-03-07T01:31:37;24.55;;;12.13;;
67747;SDS011;54543;50.712;6.070;2024-03-07T01:34:02;24.08;;;11.48;;
67747;SDS011;54543;50.712;6.070;2024-03-07T01:36:28;22.83;;;11.70;;
67747;SDS011;54543;50.712;6.070;2024-03-07T01:38:55;27.35;;;11.82;;
67747;SDS011;54543;50.712;6.070;2024-03-07T01:41:20;19.65;;;9.55;;
67747;SDS011;54543;50.712;6.070;2024-03-07T01:43:46;23.20;;;10.52;;
67747;SDS011;54543;50.712;6.070;2024-03-07T01:46:12;25.48;;;12.55;;
67747;SDS011;54543;50.712;6.070;2024-03-07T01:48:38;25.80;;;12.38;;
67747;SDS011;54543;50.712;6.070;2024-03-07T01:51:05;24.65;;;11.65;;
67747;SDS011;54543;50.712;6.070;2024-03-07T01:53:31;28.55;;;14.05;;
67747;SDS011;54543;50.712;6.070;2024-03-07T01:56:02;23.38;;;11.45;;
67747;SDS011;54543;50.712;6.070;2024-03-07T01:58:29;27.77;;;13.10;;
67747;SDS011;54543;50.712;6.070;2024-03-07T02:00:56;25.17;;;11.40;;
67747;SDS011;54543;50.712;6.070;2024-03-07T02:03:23;28.55;;;12.52;;
67747;SDS011;54543;50.712;6.070;2024-03-07T02:05:48;28.75;;;13.35;;
67747;SDS011;54543;50.712;6.070;2024-03-07T02:08:14;26.50;;;12.90;;
67747;SDS011;54543;50.712;6.070;2024-03-07T02:10:40;24.23;;;11.85;;
67747;SDS011;54543;50.712;6.070;2024-03-07T02:13:06;26.10;;;11.25;;
67747;SDS011;54543;50.712;6.070;2024-03-07T02:15:32;25.35;;;12.05;;
67747;SDS011;54543;50.712;6.070;2024-03-07T02:17:58;23.77;;;11.52;;
67747;SDS011;54543;50.712;6.070;2024-03-07T02:20:23;22.70;;;11.32;;
67747;SDS011;54543;50.712;6.070;2024-03-07T02:22:49;22.23;;;10.18;;
67747;SDS011;54543;50.712;6.070;2024-03-07T02:25:15;22.15;;;10.68;;
67747;SDS011;54543;50.712;6.070;2024-03-07T02:27:42;22.52;;;11.02;;
67747;SDS011;54543;50.712;6.070;2024-03-07T02:30:07;23.20;;;11.10;;
67747;SDS011;54543;50.712;6.070;2024-03-07T02:32:37;22.80;;;10.68;;
67747;SDS011;54543;50.712;6.070;2024-03-07T02:35:03;23.70;;;10.48;;
67747;SDS011;54543;50.712;6.070;2024-03-07T02:37:31;23.08;;;10.88;;
67747;SDS011;54543;50.712;6.070;2024-03-07T02:39:57;20.75;;;9.90;;
67747;SDS011;54543;50.712;6.070;2024-03-07T02:42:23;18.35;;;8.82;;
67747;SDS011;54543;50.712;6.070;2024-03-07T02:44:49;20.83;;;10.07;;
67747;SDS011;54543;50.712;6.070;2024-03-07T02:47:14;20.63;;;9.38;;
67747;SDS011;54543;50.712;6.070;2024-03-07T02:49:40;19.50;;;10.10;;
67747;SDS011;54543;50.712;6.070;2024-03-07T02:52:06;21.42;;;9.98;;
67747;SDS011;54543;50.712;6.070;2024-03-07T02:54:34;19.45;;;9.70;;
67747;SDS011;54543;50.712;6.070;2024-03-07T02:56:59;19.67;;;9.00;;
67747;SDS011;54543;50.712;6.070;2024-03-07T02:59:25;18.65;;;9.35;;
67747;SDS011;54543;50.712;6.070;2024-03-07T03:01:51;17.17;;;8.90;;
67747;SDS011;54543;50.712;6.070;2024-03-07T03:04:16;20.05;;;9.45;;
67747;SDS011;54543;50.712;6.070;2024-03-07T03:06:43;16.17;;;8.52;;
67747;SDS011;54543;50.712;6.070;2024-03-07T03:09:08;19.92;;;10.15;;
67747;SDS011;54543;50.712;6.070;2024-03-07T03:11:39;18.15;;;9.10;;
67747;SDS011;54543;50.712;6.070;2024-03-07T03:14:04;20.27;;;9.20;;
67747;SDS011;54543;50.712;6.070;2024-03-07T03:16:30;23.33;;;10.32;;
67747;SDS011;54543;50.712;6.070;2024-03-07T03:18:56;20.52;;;9.55;;
67747;SDS011;54543;50.712;6.070;2024-03-07T03:21:23;19.90;;;9.00;;
67747;SDS011;54543;50.712;6.070;2024-03-07T03:23:50;25.00;;;10.25;;
67747;SDS011;54543;50.712;6.070;2024-03-07T03:26:15;20.60;;;9.10;;
67747;SDS011;54543;50.712;6.070;2024-03-07T03:28:41;24.20;;;10.15;;
67747;SDS011;54543;50.712;6.070;2024-03-07T03:31:07;21.02;;;9.25;;
67747;SDS011;54543;50.712;6.070;2024-03-07T03:33:33;21.08;;;10.30;;
67747;SDS011;54543;50.712;6.070;2024-03-07T03:36:00;22.42;;;9.57;;
67747;SDS011;54543;50.712;6.070;2024-03-07T03:38:27;21.70;;;9.45;;
67747;SDS011;54543;50.712;6.070;2024-03-07T03:40:52;21.92;;;9.95;;
67747;SDS011;54543;50.712;6.070;2024-03-07T03:43:18;23.70;;;10.35;;
67747;SDS011;54543;50.712;6.070;2024-03-07T03:45:44;21.30;;;9.75;;
67747;SDS011;54543;50.712;6.070;2024-03-07T03:48:10;23.67;;;10.60;;
67747;SDS011;54543;50.712;6.070;2024-03-07T03:50:36;20.75;;;9.73;;
67747;SDS011;54543;50.712;6.070;2024-03-07T03:53:02;22.65;;;9.32;;
67747;SDS011;54543;50.712;6.070;2024-03-07T03:55:29;22.17;;;10.10;;
67747;SDS011;54543;50.712;6.070;2024-03-07T03:57:54;26.73;;;10.00;;
67747;SDS011;54543;50.712;6.070;2024-03-07T04:00:21;22.38;;;9.35;;
67747;SDS011;54543;50.712;6.070;2024-03-07T04:02:48;22.98;;;9.90;;
67747;SDS011;54543;50.712;6.070;2024-03-07T04:05:14;21.98;;;9.73;;
67747;SDS011;54543;50.712;6.070;2024-03-07T04:07:41;24.55;;;10.45;;
67747;SDS011;54543;50.712;6.070;2024-03-07T04:10:08;22.20;;;9.73;;
67747;SDS011;54543;50.712;6.070;2024-03-07T04:12:38;27.38;;;11.10;;
67747;SDS011;54543;50.712;6.070;2024-03-07T04:15:08;20.20;;;9.73;;
67747;SDS011;54543;50.712;6.070;2024-03-07T04:17:36;21.50;;;9.35;;
67747;SDS011;54543;50.712;6.070;2024-03-07T04:20:03;21.58;;;9.50;;
67747;SDS011;54543;50.712;6.070;2024-03-07T04:22:31;21.35;;;10.25;;
67747;SDS011;54543;50.712;6.070;2024-03-07T04:25:00;21.85;;;9.85;;
67747;SDS011;54543;50.712;6.070;2024-03-07T04:27:27;21.83;;;9.85;;
67747;SDS011;54543;50.712;6.070;2024-03-07T04:29:53;23.00;;;10.57;;
67747;SDS011;54543;50.712;6.070;2024-03-07T04:32:18;22.33;;;10.52;;
67747;SDS011;54543;50.712;6.070;2024-03-07T04:34:44;21.23;;;9.75;;
67747;SDS011;54543;50.712;6.070;2024-03-07T04:37:09;23.63;;;11.02;;
67747;SDS011;54543;50.712;6.070;2024-03-07T04:39:35;23.63;;;11.20;;
67747;SDS011;54543;50.712;6.070;2024-03-07T04:42:04;20.38;;;9.63;;
67747;SDS011;54543;50.712;6.070;2024-03-07T04:44:33;25.95;;;11.32;;
67747;SDS011;54543;50.712;6.070;2024-03-07T04:47:04;21.23;;;10.07;;
67747;SDS011;54543;50.712;6.070;2024-03-07T04:49:31;21.77;;;10.25;;
67747;SDS011;54543;50.712;6.070;2024-03-07T04:51:58;26.15;;;11.13;;
67747;SDS011;54543;50.712;6.070;2024-03-07T04:54:26;23.08;;;10.60;;
67747;SDS011;54543;50.712;6.070;2024-03-07T04:56:53;21.25;;;10.32;;
67747;SDS011;54543;50.712;6.070;2024-03-07T04:59:19;23.75;;;10.45;;
67747;SDS011;54543;50.712;6.070;2024-03-07T05:01:46;21.77;;;11.60;;
67747;SDS011;54543;50.712;6.070;2024-03-07T05:04:12;24.15;;;11.15;;
67747;SDS011;54543;50.712;6.070;2024-03-07T05:06:39;22.85;;;10.48;;
67747;SDS011;54543;50.712;6.070;2024-03-07T05:09:05;23.58;;;11.70;;
67747;SDS011;54543;50.712;6.070;2024-03-07T05:11:33;23.08;;;11.00;;
67747;SDS011;54543;50.712;6.070;2024-03-07T05:13:59;26.05;;;10.88;;
67747;SDS011;54543;50.712;6.070;2024-03-07T05:16:29;24.33;;;10.90;;
67747;SDS011;54543;50.712;6.070;2024-03-07T05:18:56;23.50;;;10.50;;
67747;SDS011;54543;50.712;6.070;2024-03-07T05:21:25;23.15;;;11.13;;
67747;SDS011;54543;50.712;6.070;2024-03-07T05:24:08;20.20;;;9.05;;
67747;SDS011;54543;50.712;6.070;2024-03-07T05:26:34;24.40;;;10.68;;
67747;SDS011;54543;50.712;6.070;2024-03-07T05:29:06;23.45;;;10.63;;
67747;SDS011;54543;50.712;6.070;2024-03-07T05:31:37;21.60;;;10.65;;
67747;SDS011;54543;50.712;6.070;2024-03-07T05:34:03;19.85;;;9.48;;
67747;SDS011;54543;50.712;6.070;2024-03-07T05:36:33;26.05;;;11.20;;
67747;SDS011;54543;50.712;6.070;2024-03-07T05:38:59;22.40;;;10.25;;
67747;SDS011;54543;50.712;6.070;2024-03-07T05:41:28;24.88;;;10.95;;
67747;SDS011;54543;50.712;6.070;2024-03-07T05:43:55;22.02;;;10.13;;
67747;SDS011;54543;50.712;6.070;2024-03-07T05:46:21;24.42;;;10.45;;
67747;SDS011;54543;50.712;6.070;2024-03-07T05:48:47;21.67;;;9.82;;
67747;SDS011;54543;50.712;6.070;2024-03-07T05:51:17;23.77;;;10.77;;
67747;SDS011;54543;50.712;6.070;2024-03-07T05:53:43;23.00;;;11.52;;
67747;SDS011;54543;50.712;6.070;2024-03-07T05:56:08;24.55;;;10.68;;
67747;SDS011;54543;50.712;6.070;2024-03-07T05:58:34;25.55;;;10.25;;
67747;SDS011;54543;50.712;6.070;2024-03-07T06:01:00;21.58;;;9.57;;
67747;SDS011;54543;50.712;6.070;2024-03-07T06:03:26;24.67;;;10.57;;
67747;SDS011;54543;50.712;6.070;2024-03-07T06:05:51;21.38;;;9.38;;
67747;SDS011;54543;50.712;6.070;2024-03-07T06:08:18;21.90;;;9.43;;
67747;SDS011;54543;50.712;6.070;2024-03-07T06:10:44;23.52;;;10.88;;
67747;SDS011;54543;50.712;6.070;2024-03-07T06:13:10;24.25;;;9.48;;
67747;SDS011;54543;50.712;6.070;2024-03-07T06:15:38;23.38;;;8.90;;
67747;SDS011;54543;50.712;6.070;2024-03-07T06:18:04;20.35;;;9.20;;
67747;SDS011;54543;50.712;6.070;2024-03-07T06:20:39;23.58;;;9.95;;
67747;SDS011;54543;50.712;6.070;2024-03-07T06:23:08;21.15;;;9.05;;
67747;SDS011;54543;50.712;6.070;2024-03-07T06:25:37;24.45;;;9.45;;
67747;SDS011;54543;50.712;6.070;2024-03-07T06:33:05;13.65;;;6.60;;
67747;SDS011;54543;50.712;6.070;2024-03-07T06:35:34;19.17;;;7.15;;
67747;SDS011;54543;50.712;6.070;2024-03-07T06:38:07;17.10;;;8.02;;
67747;SDS011;54543;50.712;6.070;2024-03-07T06:40:36;17.90;;;7.80;;
67747;SDS011;54543;50.712;6.070;2024-03-07T06:43:03;16.95;;;8.27;;
67747;SDS011;54543;50.712;6.070;2024-03-07T06:45:29;20.27;;;9.10;;
67747;SDS011;54543;50.712;6.070;2024-03-07T06:47:58;19.40;;;8.93;;
67747;SDS011;54543;50.712;6.070;2024-03-07T06:50:24;22.25;;;9.18;;
67747;SDS011;54543;50.712;6.070;2024-03-07T06:52:52;24.08;;;9.98;;
67747;SDS011;54543;50.712;6.070;2024-03-07T06:55:19;22.08;;;9.43;;
67747;SDS011;54543;50.712;6.070;2024-03-07T06:57:45;22.88;;;10.10;;
67747;SDS011;54543;50.712;6.070;2024-03-07T07:00:13;20.30;;;8.50;;
67747;SDS011;54543;50.712;6.070;2024-03-07T07:02:52;19.60;;;8.95;;
67747;SDS011;54543;50.712;6.070;2024-03-07T07:07:52;21.52;;;9.57;;
67747;SDS011;54543;50.712;6.070;2024-03-07T07:10:19;21.60;;;9.32;;
67747;SDS011;54543;50.712;6.070;2024-03-07T07:12:46;21.55;;;9.43;;
67747;SDS011;54543;50.712;6.070;2024-03-07T07:15:16;23.63;;;10.00;;
67747;SDS011;54543;50.712;6.070;2024-03-07T07:17:44;21.75;;;10.27;;
67747;SDS011;54543;50.712;6.070;2024-03-07T07:20:14;22.85;;;10.40;;
67747;SDS011;54543;50.712;6.070;2024-03-07T07:22:48;21.00;;;10.77;;
67747;SDS011;54543;50.712;6.070;2024-03-07T07:25:15;21.05;;;9.77;;
67747;SDS011;54543;50.712;6.070;2024-03-07T07:30:18;22.45;;;9.38;;
67747;SDS011;54543;50.712;6.070;2024-03-07T07:32:46;22.30;;;10.07;;
67747;SDS011;54543;50.712;6.070;2024-03-07T07:40:16;19.67;;;9.43;;
67747;SDS011;54543;50.712;6.070;2024-03-07T07:42:52;20.60;;;9.70;;
67747;SDS011;54543;50.712;6.070;2024-03-07T07:45:24;21.48;;;9.38;;
67747;SDS011;54543;50.712;6.070;2024-03-07T07:47:55;23.10;;;9.25;;
67747;SDS011;54543;50.712;6.070;2024-03-07T07:50:22;17.70;;;9.32;;
67747;SDS011;54543;50.712;6.070;2024-03-07T07:52:54;21.95;;;9.82;;
67747;SDS011;54543;50.712;6.070;2024-03-07T07:55:22;19.92;;;9.05;;
67747;SDS011;54543;50.712;6.070;2024-03-07T07:57:59;20.60;;;10.00;;
67747;SDS011;54543;50.712;6.070;2024-03-07T08:00:40;21.30;;;9.60;;
67747;SDS011;54543;50.712;6.070;2024-03-07T08:03:11;20.70;;;9.35;;
67747;SDS011;54543;50.712;6.070;2024-03-07T08:08:06;23.88;;;10.70;;
67747;SDS011;54543;50.712;6.070;2024-03-07T08:10:37;21.50;;;10.40;;
67747;SDS011;54543;50.712;6.070;2024-03-07T08:13:06;20.95;;;9.75;;
67747;SDS011;54543;50.712;6.070;2024-03-07T08:15:39;21.83;;;9.30;;
67747;SDS011;54543;50.712;6.070;2024-03-07T08:18:08;20.90;;;9.32;;
67747;SDS011;54543;50.712;6.070;2024-03-07T08:23:08;22.50;;;11.43;;
67747;SDS011;54543;50.712;6.070;2024-03-07T08:25:37;18.48;;;9.50;;
67747;SDS011;54543;50.712;6.070;2024-03-07T08:28:10;17.67;;;9.13;;
67747;SDS011;54543;50.712;6.070;2024-03-07T08:33:07;19.15;;;9.27;;
67747;SDS011;54543;50.712;6.070;2024-03-07T08:35:35;19.67;;;9.38;;
67747;SDS011;54543;50.712;6.070;2024-03-07T08:38:04;18.45;;;9.02;;
67747;SDS011;54543;50.712;6.070;2024-03-07T08:40:30;22.33;;;9.93;;
67747;SDS011;54543;50.712;6.070;2024-03-07T08:43:03;19.27;;;9.07;;
67747;SDS011;54543;50.712;6.070;2024-03-07T08:50:29;18.80;;;9.00;;
67747;SDS011;54543;50.712;6.070;2024-03-07T08:52:55;23.08;;;10.70;;
67747;SDS011;54543;50.712;6.070;2024-03-07T08:55:24;20.85;;;10.25;;
67747;SDS011;54543;50.712;6.070;2024-03-07T08:57:52;21.83;;;9.48;;
67747;SDS011;54543;50.712;6.070;2024-03-07T09:00:21;21.20;;;10.57;;
67747;SDS011;54543;50.712;6.070;2024-03-07T09:02:49;22.35;;;10.80;;
67747;SDS011;54543;50.712;6.070;2024-03-07T09:05:25;21.90;;;10.07;;
67747;SDS011;54543;50.712;6.070;2024-03-07T09:07:53;23.38;;;12.73;;
67747;SDS011;54543;50.712;6.070;2024-03-07T09:10:22;19.45;;;10.57;;
67747;SDS011;54543;50.712;6.070;2024-03-07T09:12:51;17.83;;;9.40;;
67747;SDS011;54543;50.712;6.070;2024-03-07T09:15:21;19.42;;;11.80;;
67747;SDS011;54543;50.712;6.070;2024-03-07T09:17:52;19.48;;;10.52;;
67747;SDS011;54543;50.712;6.070;2024-03-07T09:20:24;18.27;;;9.77;;
67747;SDS011;54543;50.712;6.070;2024-03-07T09:22:49;22.08;;;11.35;;
67747;SDS011;54543;50.712;6.070;2024-03-07T09:25:19;20.05;;;9.70;;
67747;SDS011;54543;50.712;6.070;2024-03-07T09:27:50;18.33;;;10.18;;
67747;SDS011;54543;50.712;6.070;2024-03-07T09:30:22;17.70;;;9.98;;
67747;SDS011;54543;50.712;6.070;2024-03-07T09:32:54;19.37;;;10.27;;
67747;SDS011;54543;50.712;6.070;2024-03-07T09:37:56;19.15;;;10.70;;
67747;SDS011;54543;50.712;6.070;2024-03-07T09:40:26;20.40;;;11.15;;
67747;SDS011;54543;50.712;6.070;2024-03-07T09:42:54;17.73;;;9.52;;
67747;SDS011;54543;50.712;6.070;2024-03-07T09:45:21;15.02;;;8.75;;
67747;SDS011;54543;50.712;6.070;2024-03-07T09:47:50;17.10;;;10.40;;
67747;SDS011;54543;50.712;6.070;2024-03-07T09:50:17;15.85;;;8.65;;
67747;SDS011;54543;50.712;6.070;2024-03-07T09:52:52;15.27;;;9.07;;
67747;SDS011;54543;50.712;6.070;2024-03-07T09:55:18;18.33;;;9.90;;
67747;SDS011;54543;50.712;6.070;2024-03-07T09:57:50;17.30;;;9.00;;
67747;SDS011;54543;50.712;6.070;2024-03-07T10:00:19;17.20;;;9.70;;
67747;SDS011;54543;50.712;6.070;2024-03-07T10:03:02;12.45;;;7.70;;
67747;SDS011;54543;50.712;6.070;2024-03-07T10:05:37;13.55;;;8.23;;
67747;SDS011;54543;50.712;6.070;2024-03-07T10:08:03;15.77;;;9.25;;
67747;SDS011;54543;50.712;6.070;2024-03-07T10:10:31;13.95;;;8.73;;
67747;SDS011;54543;50.712;6.070;2024-03-07T10:12:57;14.82;;;8.45;;
67747;SDS011;54543;50.712;6.070;2024-03-07T10:15:30;15.43;;;8.88;;
67747;SDS011;54543;50.712;6.070;2024-03-07T10:18:02;16.73;;;8.60;;
67747;SDS011;54543;50.712;6.070;2024-03-07T10:20:28;15.95;;;9.07;;
67747;SDS011;54543;50.712;6.070;2024-03-07T10:22:53;16.63;;;9.43;;
67747;SDS011;54543;50.712;6.070;2024-03-07T10:25:22;15.75;;;8.50;;
67747;SDS011;54543;50.712;6.070;2024-03-07T10:27:50;14.85;;;8.45;;
67747;SDS011;54543;50.712;6.070;2024-03-07T10:30:18;12.70;;;8.00;;
67747;SDS011;54543;50.712;6.070;2024-03-07T10:32:50;13.00;;;8.10;;
67747;SDS011;54543;50.712;6.070;2024-03-07T10:37:57;13.63;;;7.82;;
67747;SDS011;54543;50.712;6.070;2024-03-07T10:40:34;12.85;;;7.75;;
67747;SDS011;54543;50.712;6.070;2024-03-07T10:43:11;13.10;;;7.85;;
67747;SDS011;54543;50.712;6.070;2024-03-07T10:48:12;11.70;;;7.18;;
67747;SDS011;54543;50.712;6.070;2024-03-07T10:50:52;11.23;;;6.93;;
67747;SDS011;54543;50.712;6.070;2024-03-07T10:53:32;14.82;;;8.32;;
67747;SDS011;54543;50.712;6.070;2024-03-07T10:59:25;15.55;;;8.80;;
67747;SDS011;54543;50.712;6.070;2024-03-07T11:04:59;15.65;;;9.02;;
67747;SDS011;54543;50.712;6.070;2024-03-07T11:07:25;13.82;;;8.35;;
67747;SDS011;54543;50.712;6.070;2024-03-07T11:09:53;15.27;;;9.52;;
67747;SDS011;54543;50.712;6.070;2024-03-07T11:12:26;16.92;;;9.18;;
67747;SDS011;54543;50.712;6.070;2024-03-07T11:14:53;14.32;;;8.80;;
67747;SDS011;54543;50.712;6.070;2024-03-07T11:17:27;13.68;;;8.10;;
67747;SDS011;54543;50.712;6.070;2024-03-07T11:19:55;14.48;;;7.93;;
67747;SDS011;54543;50.712;6.070;2024-03-07T11:22:49;14.30;;;8.60;;
67747;SDS011;54543;50.712;6.070;2024-03-07T11:25:19;13.55;;;7.80;;
67747;SDS011;54543;50.712;6.070;2024-03-07T11:27:54;16.50;;;9.00;;
67747;SDS011;54543;50.712;6.070;2024-03-07T11:30:22;11.93;;;7.18;;
67747;SDS011;54543;50.712;6.070;2024-03-07T11:32:52;14.38;;;7.85;;
67747;SDS011;54543;50.712;6.070;2024-03-07T11:35:20;13.15;;;7.75;;
67747;SDS011;54543;50.712;6.070;2024-03-07T11:45:31;13.82;;;8.57;;
67747;SDS011;54543;50.712;6.070;2024-03-07T11:48:09;13.57;;;8.63;;
67747;SDS011;54543;50.712;6.070;2024-03-07T11:50:36;13.52;;;7.80;;
67747;SDS011;54543;50.712;6.070;2024-03-07T11:53:03;14.02;;;8.13;;
67747;SDS011;54543;50.712;6.070;2024-03-07T11:55:32;14.10;;;8.23;;
67747;SDS011;54543;50.712;6.070;2024-03-07T11:58:18;16.70;;;8.40;;
67747;SDS011;54543;50.712;6.070;2024-03-07T12:00:47;16.25;;;8.50;;
67747;SDS011;54543;50.712;6.070;2024-03-07T12:03:19;15.68;;;8.98;;
67747;SDS011;54543;50.712;6.070;2024-03-07T12:05:50;16.85;;;8.90;;
67747;SDS011;54543;50.712;6.070;2024-03-07T12:08:17;12.05;;;7.40;;
67747;SDS011;54543;50.712;6.070;2024-03-07T12:10:44;13.85;;;6.53;;
67747;SDS011;54543;50.712;6.070;2024-03-07T12:13:10;12.18;;;7.32;;
67747;SDS011;54543;50.712;6.070;2024-03-07T12:15:37;10.77;;;6.55;;
67747;SDS011;54543;50.712;6.070;2024-03-07T12:18:04;12.95;;;7.32;;
67747;SDS011;54543;50.712;6.070;2024-03-07T12:20:40;12.77;;;6.20;;
67747;SDS011;54543;50.712;6.070;2024-03-07T12:23:07;15.00;;;7.43;;
67747;SDS011;54543;50.712;6.070;2024-03-07T12:25:36;11.05;;;6.25;;
67747;SDS011;54543;50.712;6.070;2024-03-07T12:28:10;12.23;;;7.15;;
67747;SDS011;54543;50.712;6.070;2024-03-07T12:30:48;13.00;;;7.25;;
67747;SDS011;54543;50.712;6.070;2024-03-07T12:33:16;12.98;;;7.93;;
67747;SDS011;54543;50.712;6.070;2024-03-07T12:35:46;11.45;;;7.20;;
67747;SDS011;54543;50.712;6.070;2024-03-07T12:38:17;9.50;;;6.70;;
67747;SDS011;54543;50.712;6.070;2024-03-07T12:41:01;12.07;;;7.25;;
67747;SDS011;54543;50.712;6.070;2024-03-07T12:43:39;13.02;;;7.78;;
67747;SDS011;54543;50.712;6.070;2024-03-07T12:46:07;13.07;;;7.28;;
67747;SDS011;54543;50.712;6.070;2024-03-07T12:48:37;11.23;;;7.00;;
67747;SDS011;54543;50.712;6.070;2024-03-07T12:51:04;14.73;;;7.22;;
67747;SDS011;54543;50.712;6.070;2024-03-07T12:53:30;12.25;;;7.15;;
67747;SDS011;54543;50.712;6.070;2024-03-07T12:55:56;12.68;;;7.80;;
67747;SDS011;54543;50.712;6.070;2024-03-07T12:58:22;12.40;;;7.05;;
67747;SDS011;54543;50.712;6.070;2024-03-07T13:00:51;11.48;;;6.43;;
67747;SDS011;54543;50.712;6.070;2024-03-07T13:03:18;11.18;;;7.63;;
67747;SDS011;54543;50.712;6.070;2024-03-07T13:05:43;10.50;;;6.63;;
67747;SDS011;54543;50.712;6.070;2024-03-07T13:08:09;12.45;;;7.72;;
67747;SDS011;54543;50.712;6.070;2024-03-07T13:10:41;13.88;;;7.80;;
67747;SDS011;54543;50.712;6.070;2024-03-07T13:13:08;14.38;;;8.65;;
67747;SDS011;54543;50.712;6.070;2024-03-07T13:15:37;12.10;;;7.40;;
67747;SDS011;54543;50.712;6.070;2024-03-07T13:18:08;11.73;;;7.18;;
67747;SDS011;54543;50.712;6.070;2024-03-07T13:20:34;10.43;;;6.75;;
67747;SDS011;54543;50.712;6.070;2024-03-07T13:23:01;11.65;;;7.50;;
67747;SDS011;54543;50.712;6.070;2024-03-07T13:25:28;9.93;;;7.10;;
67747;SDS011;54543;50.712;6.070;2024-03-07T13:30:24;10.98;;;6.88;;
67747;SDS011;54543;50.712;6.070;2024-03-07T13:32:56;11.75;;;7.28;;
67747;SDS011;54543;50.712;6.070;2024-03-07T13:35:23;13.30;;;7.45;;
67747;SDS011;54543;50.712;6.070;2024-03-07T13:37:51;10.80;;;7.00;;
67747;SDS011;54543;50.712;6.070;2024-03-07T13:40:20;12.38;;;6.95;;
67747;SDS011;54543;50.712;6.070;2024-03-07T13:42:53;12.63;;;6.68;;
67747;SDS011;54543;50.712;6.070;2024-03-07T13:45:26;9.55;;;6.07;;
67747;SDS011;54543;50.712;6.070;2024-03-07T13:47:54;8.55;;;5.80;;
67747;SDS011;54543;50.712;6.070;2024-03-07T13:50:21;11.82;;;7.00;;
67747;SDS011;54543;50.712;6.070;2024-03-07T13:52:49;8.60;;;5.93;;
67747;SDS011;54543;50.712;6.070;2024-03-07T14:13:03;8.75;;;6.10;;
67747;SDS011;54543;50.712;6.070;2024-03-07T14:24:08;10.98;;;6.70;;
67747;SDS011;54543;50.712;6.070;2024-03-07T14:32:28;9.15;;;6.38;;
67747;SDS011;54543;50.712;6.070;2024-03-07T14:38:47;8.48;;;5.45;;
67747;SDS011;54543;50.712;6.070;2024-03-07T14:40:52;8.85;;;6.20;;
67747;SDS011;54543;50.712;6.070;2024-03-07T14:43:18;9.50;;;6.20;;
67747;SDS011;54543;50.712;6.070;2024-03-07T14:45:45;8.60;;;6.15;;
67747;SDS011;54543;50.712;6.070;2024-03-07T14:48:12;11.88;;;7.18;;
67747;SDS011;54543;50.712;6.070;2024-03-07T14:50:42;10.65;;;5.97;;
67747;SDS011;54543;50.712;6.070;2024-03-07T14:53:10;9.20;;;6.13;;
67747;SDS011;54543;50.712;6.070;2024-03-07T14:55:37;10.95;;;6.15;;
67747;SDS011;54543;50.712;6.070;2024-03-07T14:58:05;8.20;;;5.65;;
67747;SDS011;54543;50.712;6.070;2024-03-07T15:00:36;9.85;;;6.25;;
67747;SDS011;54543;50.712;6.070;2024-03-07T15:03:12;10.38;;;6.60;;
67747;SDS011;54543;50.712;6.070;2024-03-07T15:05:42;10.30;;;6.75;;
67747;SDS011;54543;50.712;6.070;2024-03-07T15:08:16;7.97;;;5.55;;
67747;SDS011;54543;50.712;6.070;2024-03-07T15:10:45;8.02;;;5.57;;
67747;SDS011;54543;50.712;6.070;2024-03-07T15:13:15;10.82;;;5.97;;
67747;SDS011;54543;50.712;6.070;2024-03-07T15:15:42;7.50;;;5.20;;
67747;SDS011;54543;50.712;6.070;2024-03-07T15:18:09;7.60;;;5.10;;
67747;SDS011;54543;50.712;6.070;2024-03-07T15:20:35;10.30;;;6.38;;
67747;SDS011;54543;50.712;6.070;2024-03-07T15:23:01;7.70;;;5.13;;
67747;SDS011;54543;50.712;6.070;2024-03-07T15:25:33;9.02;;;5.63;;
67747;SDS011;54543;50.712;6.070;2024-03-07T15:27:59;7.38;;;4.70;;
67747;SDS011;54543;50.712;6.070;2024-03-07T15:30:25;5.82;;;4.28;;
67747;SDS011;54543;50.712;6.070;2024-03-07T15:32:59;6.35;;;4.40;;
67747;SDS011;54543;50.712;6.070;2024-03-07T15:35:26;7.28;;;4.70;;
67747;SDS011;54543;50.712;6.070;2024-03-07T15:37:51;7.05;;;4.40;;
67747;SDS011;54543;50.712;6.070;2024-03-07T15:40:18;7.38;;;4.55;;
67747;SDS011;54543;50.712;6.070;2024-03-07T15:42:49;6.63;;;4.20;;
67747;SDS011;54543;50.712;6.070;2024-03-07T15:45:21;7.90;;;4.97;;
67747;SDS011;54543;50.712;6.070;2024-03-07T15:47:50;6.50;;;4.05;;
67747;SDS011;54543;50.712;6.070;2024-03-07T15:50:16;8.10;;;5.30;;
67747;SDS011;54543;50.712;6.070;2024-03-07T15:52:50;7.18;;;4.43;;
67747;SDS011;54543;50.712;6.070;2024-03-07T15:57:55;8.02;;;5.25;;
67747;SDS011;54543;50.712;6.070;2024-03-07T16:00:26;8.50;;;5.45;;
67747;SDS011;54543;50.712;6.070;2024-03-07T16:02:56;7.03;;;4.85;;
67747;SDS011;54543;50.712;6.070;2024-03-07T16:05:26;7.60;;;4.90;;
67747;SDS011;54543;50.712;6.070;2024-03-07T16:07:56;9.10;;;5.68;;